Terminal Aerodrome Forecast
Issued by NWS Mt. Holly, NJ

Home | Current Version | Previous Version | Text Only | Print | Product List | Glossary On
Versions: 1 2 3 4 5 6 7 8 9 10 11 12 13 14 15 16 17 18 19 20 21 22
915
FTUS41 KPHI 290326 AAB
TAFILG
TAF AMD
KILG 290326Z 2903/2924 02004KT 4SM -SHRA BR OVC100
      TEMPO 2906/2907 2SM RA BR OVC035
     FM290700 07007KT 4SM RA BR OVC025
      TEMPO 2907/2911 1SM +TSRA OVC009CB
     FM291100 34010KT P6SM VCSH OVC015
      TEMPO 2911/2914 4SM -SHRA
     FM291400 36011G18KT P6SM BKN035
     FM291900 36010KT P6SM SCT050=

USA.gov is the U.S. government's official web portal to all federal, state and local government web resources and services.